Time;durP1;ratioP1;P1;durP2;ratioP2;P2;SDS_P1;SDS_P2;PMS_P1;PMS_P2;Temp;Humidity;BMP_temperature;BMP_pressure;BME280_temperature;BME280_humidity;BME280_pressure;Samples;Min_cycle;Max_cycle;Signal;HPM_P1;HPM_P2
2024/01/24 00:02:00;;;;;;;2.42;2.33;;;17.10;69.10;;;;;;5010032;28;20045;-85
2024/01/24 00:04:26;;;;;;;2.38;2.28;;;17.10;69.00;;;;;;5025323;28;20041;-84
2024/01/24 00:06:52;;;;;;;2.35;2.10;;;17.10;69.00;;;;;;5025471;28;20041;-83
2024/01/24 00:09:17;;;;;;;2.03;1.92;;;17.10;69.10;;;;;;5023905;28;20030;-82
2024/01/24 00:11:43;;;;;;;3.13;2.28;;;17.10;69.10;;;;;;4996882;28;20571;-83
2024/01/24 00:14:10;;;;;;;2.08;1.98;;;17.10;69.20;;;;;;5013600;28;20030;-82
2024/01/24 00:16:35;;;;;;;2.38;2.20;;;17.10;69.20;;;;;;5024020;28;20096;-83
2024/01/24 00:19:01;;;;;;;2.28;2.08;;;17.10;69.20;;;;;;5026135;28;20614;-84
2024/01/24 00:21:27;;;;;;;2.17;1.98;;;17.00;69.30;;;;;;5007508;28;20434;-83
2024/01/24 00:23:52;;;;;;;1.95;1.85;;;17.00;69.30;;;;;;5007591;28;20083;-83
2024/01/24 00:26:18;;;;;;;2.20;2.00;;;17.00;69.40;;;;;;5026308;28;20072;-83
2024/01/24 00:28:43;;;;;;;1.70;1.60;;;17.00;69.40;;;;;;5026474;28;20028;-83
2024/01/24 00:31:09;;;;;;;1.77;1.67;;;17.00;69.40;;;;;;5024286;28;20041;-83
2024/01/24 00:33:34;;;;;;;1.67;1.58;;;17.00;70.20;;;;;;5004058;28;20048;-82
2024/01/24 00:36:00;;;;;;;2.15;2.00;;;17.00;69.40;;;;;;4994201;28;20033;-82
2024/01/24 00:38:25;;;;;;;2.17;2.05;;;16.90;69.50;;;;;;5023123;28;20037;-82
2024/01/24 00:40:51;;;;;;;1.63;1.52;;;16.90;69.60;;;;;;5004018;28;20042;-83
2024/01/24 00:43:17;;;;;;;1.70;1.60;;;16.90;69.60;;;;;;5006141;28;20043;-80
2024/01/24 00:45:42;;;;;;;1.95;1.85;;;16.90;69.60;;;;;;5026708;28;20064;-83
2024/01/24 00:48:08;;;;;;;1.83;1.73;;;16.90;69.60;;;;;;5023742;28;20095;-84
2024/01/24 00:50:34;;;;;;;1.55;1.45;;;16.90;69.60;;;;;;5057384;28;20049;-83
2024/01/24 00:53:04;;;;;;;1.65;1.55;;;16.90;69.60;;;;;;5025268;28;20047;-83
2024/01/24 00:55:30;;;;;;;1.63;1.52;;;16.90;69.80;;;;;;5020080;28;20472;-83
2024/01/24 00:57:56;;;;;;;1.48;1.38;;;16.90;69.80;;;;;;5023292;28;20045;-83
2024/01/24 01:00:22;;;;;;;1.40;1.30;;;16.80;69.70;;;;;;5024805;28;20522;-82
2024/01/24 01:02:47;;;;;;;1.55;1.45;;;16.80;69.70;;;;;;5007114;28;20958;-83
2024/01/24 01:05:13;;;;;;;1.45;1.35;;;16.80;69.80;;;;;;5024610;28;20128;-83
2024/01/24 01:07:38;;;;;;;1.98;1.70;;;16.80;69.90;;;;;;5007747;28;20054;-82
2024/01/24 01:10:07;;;;;;;1.80;1.70;;;16.80;69.90;;;;;;5022231;28;20045;-83
2024/01/24 01:12:32;;;;;;;1.60;1.50;;;16.80;69.80;;;;;;5015261;28;20073;-84
2024/01/24 01:14:58;;;;;;;1.55;1.45;;;16.80;69.90;;;;;;5022318;28;20065;-83
2024/01/24 01:17:23;;;;;;;1.52;1.42;;;16.80;70.00;;;;;;5025522;28;20084;-85
2024/01/24 01:19:49;;;;;;;1.70;1.60;;;16.80;70.10;;;;;;5021031;28;20049;-85
2024/01/24 01:22:14;;;;;;;1.75;1.65;;;16.70;70.80;;;;;;5021556;28;20045;-83
2024/01/24 01:24:40;;;;;;;1.58;1.48;;;16.80;70.10;;;;;;5024985;28;20050;-84
2024/01/24 01:27:05;;;;;;;1.30;1.20;;;16.70;70.00;;;;;;5022751;28;20041;-84
2024/01/24 01:29:31;;;;;;;1.50;1.40;;;16.70;70.10;;;;;;5009843;28;20121;-84
2024/01/24 01:31:57;;;;;;;1.45;1.35;;;16.70;70.30;;;;;;5007154;28;20566;-84
2024/01/24 01:34:22;;;;;;;1.40;1.30;;;16.70;70.10;;;;;;5022424;28;20471;-83
2024/01/24 01:36:48;;;;;;;1.52;1.30;;;16.70;70.30;;;;;;5023421;28;20056;-84
2024/01/24 01:39:13;;;;;;;1.40;1.30;;;16.70;70.10;;;;;;5024179;28;20037;-82
2024/01/24 01:41:39;;;;;;;1.30;1.20;;;16.70;71.00;;;;;;5008073;28;20095;-82
2024/01/24 01:44:04;;;;;;;1.27;1.17;;;16.70;70.30;;;;;;5006431;28;20049;-82
2024/01/24 01:46:31;;;;;;;1.40;1.30;;;16.70;70.70;;;;;;5021036;28;20503;-81
2024/01/24 01:48:57;;;;;;;1.27;1.17;;;16.60;70.60;;;;;;5022985;28;20515;-82
2024/01/24 01:51:23;;;;;;;1.40;1.30;;;16.70;70.40;;;;;;5007018;28;20046;-81
2024/01/24 01:53:48;;;;;;;1.45;1.35;;;16.60;70.60;;;;;;5003243;28;20081;-81
2024/01/24 01:56:15;;;;;;;1.48;1.30;;;16.60;70.70;;;;;;5015274;28;20038;-82
2024/01/24 01:58:41;;;;;;;1.27;1.17;;;16.60;70.70;;;;;;4988230;28;20567;-84
2024/01/24 02:01:06;;;;;;;1.50;1.20;;;16.60;70.60;;;;;;5003295;28;20041;-84
2024/01/24 02:03:32;;;;;;;1.20;1.20;;;16.60;70.40;;;;;;5006136;28;20042;-84
2024/01/24 02:05:58;;;;;;;1.38;1.27;;;16.60;70.70;;;;;;5003310;28;20487;-83
2024/01/24 02:08:23;;;;;;;1.38;1.27;;;16.60;70.70;;;;;;5021364;28;20037;-83
2024/01/24 02:10:49;;;;;;;1.10;1.00;;;16.60;70.60;;;;;;5023049;28;20402;-83
2024/01/24 02:13:14;;;;;;;1.38;1.10;;;16.60;70.50;;;;;;4989952;28;20422;-84
2024/01/24 02:15:40;;;;;;;1.38;1.27;;;16.60;70.90;;;;;;5049360;28;20053;-84
2024/01/24 02:18:06;;;;;;;1.25;1.00;;;16.60;70.70;;;;;;4994138;28;20073;-83
2024/01/24 02:20:32;;;;;;;1.17;1.10;;;16.60;70.90;;;;;;4986979;28;20046;-83
2024/01/24 02:22:57;;;;;;;1.30;1.20;;;16.60;70.70;;;;;;5015663;28;20053;-84
2024/01/24 02:25:23;;;;;;;0.80;0.80;;;16.60;70.70;;;;;;5023559;28;20090;-83
2024/01/24 02:27:48;;;;;;;1.02;1.02;;;16.60;71.10;;;;;;5023446;28;20057;-84
2024/01/24 02:30:14;;;;;;;0.88;0.88;;;16.60;70.90;;;;;;4995591;28;20084;-84
2024/01/24 02:32:40;;;;;;;0.98;0.98;;;16.60;70.80;;;;;;5021946;28;20634;-83
2024/01/24 02:35:06;;;;;;;0.98;0.98;;;16.60;70.80;;;;;;5007796;28;20038;-84
2024/01/24 02:37:32;;;;;;;1.05;0.98;;;16.50;70.80;;;;;;5013916;28;20045;-84
2024/01/24 02:39:58;;;;;;;1.08;0.85;;;16.50;71.00;;;;;;5020170;28;20127;-83
2024/01/24 02:42:24;;;;;;;1.15;0.93;;;16.50;71.20;;;;;;5023608;28;20136;-82
2024/01/24 02:44:50;;;;;;;0.90;0.90;;;16.50;71.00;;;;;;5023028;28;20057;-83
2024/01/24 02:47:16;;;;;;;1.00;0.93;;;16.50;70.90;;;;;;5022575;28;20136;-81
2024/01/24 02:49:42;;;;;;;1.05;1.05;;;16.50;71.20;;;;;;5002074;28;20132;-81
2024/01/24 02:52:08;;;;;;;0.73;0.73;;;16.50;70.70;;;;;;4970728;28;20120;-81
2024/01/24 02:54:36;;;;;;;1.10;1.00;;;16.50;71.00;;;;;;5000914;28;20065;-81
2024/01/24 02:57:01;;;;;;;1.33;0.90;;;16.50;71.00;;;;;;5021031;28;20041;-81
2024/01/24 02:59:27;;;;;;;1.00;0.93;;;16.50;71.20;;;;;;5024003;28;20046;-80
2024/01/24 03:01:52;;;;;;;0.60;0.60;;;16.50;71.10;;;;;;5019566;28;20499;-82
2024/01/24 03:04:18;;;;;;;0.80;0.80;;;16.50;71.00;;;;;;5021550;28;20133;-82
2024/01/24 03:06:44;;;;;;;0.77;0.77;;;16.50;71.20;;;;;;5006224;28;20534;-82
2024/01/24 03:09:09;;;;;;;1.25;1.15;;;16.50;71.10;;;;;;5020861;28;20042;-82
2024/01/24 03:11:36;;;;;;;0.80;0.80;;;16.50;71.00;;;;;;5022862;28;20037;-84
2024/01/24 03:14:02;;;;;;;0.65;0.65;;;16.50;70.80;;;;;;5002221;28;20046;-85
2024/01/24 03:16:28;;;;;;;1.08;1.08;;;16.50;71.10;;;;;;5047015;28;20105;-83
2024/01/24 03:18:53;;;;;;;0.90;0.90;;;16.50;71.10;;;;;;5022151;28;20411;-84
2024/01/24 03:21:19;;;;;;;1.30;1.02;;;16.50;71.00;;;;;;5020439;28;20049;-85
2024/01/24 03:23:45;;;;;;;0.90;0.90;;;16.40;71.10;;;;;;5032557;28;20042;-84
2024/01/24 03:26:13;;;;;;;0.68;0.60;;;16.40;71.00;;;;;;5011835;28;20061;-83
2024/01/24 03:28:38;;;;;;;0.80;0.68;;;16.40;71.00;;;;;;4999861;28;20069;-83
2024/01/24 03:31:04;;;;;;;0.68;0.60;;;16.40;71.10;;;;;;5035754;28;20069;-85
2024/01/24 03:33:30;;;;;;;0.57;0.57;;;16.40;70.90;;;;;;5027276;28;20049;-86
2024/01/24 03:35:55;;;;;;;0.77;0.68;;;16.40;70.90;;;;;;5022493;28;20475;-85
2024/01/24 03:38:21;;;;;;;0.63;0.63;;;16.40;71.10;;;;;;5024347;28;20397;-85
2024/01/24 03:40:46;;;;;;;0.80;0.80;;;16.40;71.10;;;;;;5020218;28;20063;-85
2024/01/24 03:43:12;;;;;;;0.77;0.77;;;16.40;71.00;;;;;;5022390;28;20045;-85
2024/01/24 03:45:38;;;;;;;0.57;0.50;;;16.40;71.10;;;;;;5021668;28;20052;-84
2024/01/24 03:48:04;;;;;;;0.68;0.68;;;16.40;71.20;;;;;;5023312;28;20590;-85
2024/01/24 03:50:30;;;;;;;0.77;0.77;;;16.40;71.00;;;;;;5022770;28;20462;-85
2024/01/24 03:52:55;;;;;;;0.90;0.90;;;16.40;71.10;;;;;;5024180;28;20049;-86
2024/01/24 03:55:21;;;;;;;0.77;0.68;;;16.40;71.30;;;;;;5021402;28;20057;-85
2024/01/24 03:57:47;;;;;;;0.60;0.52;;;16.40;71.30;;;;;;5035041;28;20049;-86
2024/01/24 04:00:13;;;;;;;0.60;0.60;;;16.40;71.20;;;;;;5020077;28;20124;-86
2024/01/24 04:02:40;;;;;;;0.57;0.57;;;16.40;71.20;;;;;;5020003;28;20038;-87
2024/01/24 04:05:06;;;;;;;0.85;0.85;;;16.40;71.30;;;;;;5044505;28;20046;-86
2024/01/24 04:07:31;;;;;;;0.52;0.52;;;16.40;71.30;;;;;;4985372;28;20034;-86
2024/01/24 04:09:58;;;;;;;0.55;0.55;;;16.40;71.20;;;;;;5025472;28;20030;-86
2024/01/24 04:12:24;;;;;;;0.68;0.68;;;16.40;71.20;;;;;;5026643;28;20595;-86
2024/01/24 04:14:49;;;;;;;0.60;0.60;;;16.40;71.20;;;;;;5024284;28;20125;-85
2024/01/24 04:17:15;;;;;;;0.50;0.50;;;16.40;72.00;;;;;;5025588;28;20049;-84
2024/01/24 04:19:40;;;;;;;0.60;0.60;;;16.40;72.10;;;;;;5026060;28;20348;-85
2024/01/24 04:22:07;;;;;;;0.55;0.55;;;16.40;71.10;;;;;;5023835;28;20056;-84
2024/01/24 04:24:33;;;;;;;0.50;0.50;;;16.30;71.30;;;;;;4991331;28;20038;-83
2024/01/24 04:26:58;;;;;;;0.50;0.50;;;16.30;71.30;;;;;;5021084;28;20038;-83
2024/01/24 04:29:24;;;;;;;0.50;0.50;;;16.30;71.40;;;;;;4993979;28;20040;-82
2024/01/24 04:31:49;;;;;;;0.40;0.40;;;16.30;71.10;;;;;;4982310;28;20061;-81
2024/01/24 04:34:17;;;;;;;0.50;0.50;;;16.30;71.20;;;;;;5003946;28;20084;-84
2024/01/24 04:36:43;;;;;;;0.40;0.40;;;16.40;71.40;;;;;;4989760;28;20042;-84
2024/01/24 04:39:10;;;;;;;0.60;0.50;;;16.30;71.10;;;;;;4988645;28;20041;-84
2024/01/24 04:41:36;;;;;;;0.40;0.40;;;16.30;71.00;;;;;;5013423;28;20053;-84
2024/01/24 04:44:02;;;;;;;0.60;0.60;;;16.30;71.10;;;;;;5056967;28;20033;-84
2024/01/24 04:46:27;;;;;;;0.52;0.50;;;16.30;71.30;;;;;;5009707;28;20121;-83
2024/01/24 04:48:53;;;;;;;0.50;0.50;;;16.30;71.30;;;;;;4980551;28;20087;-83
2024/01/24 04:51:18;;;;;;;0.60;0.60;;;16.30;71.20;;;;;;5024045;28;20072;-83
2024/01/24 04:53:44;;;;;;;0.60;0.60;;;16.30;71.20;;;;;;5024353;28;20029;-84
2024/01/24 04:56:10;;;;;;;0.40;0.40;;;16.30;71.30;;;;;;5025372;28;20522;-85
2024/01/24 04:58:35;;;;;;;0.40;0.40;;;16.30;71.40;;;;;;5026360;28;20034;-84
2024/01/24 05:01:02;;;;;;;0.65;0.50;;;16.30;71.50;;;;;;4993507;28;20026;-85
2024/01/24 05:03:28;;;;;;;0.40;0.40;;;16.30;71.30;;;;;;5003207;28;20041;-84
2024/01/24 05:05:53;;;;;;;0.40;0.40;;;16.30;71.30;;;;;;5049021;28;20397;-84
2024/01/24 05:08:19;;;;;;;0.77;0.57;;;16.30;71.30;;;;;;5022948;28;20522;-83
2024/01/24 05:10:45;;;;;;;0.60;0.50;;;16.30;71.40;;;;;;5023335;28;20562;-82
2024/01/24 05:13:11;;;;;;;0.43;0.43;;;16.30;71.20;;;;;;5022703;28;20034;-82
2024/01/24 05:15:36;;;;;;;0.60;0.57;;;16.30;71.50;;;;;;5020278;28;20029;-82
2024/01/24 05:18:02;;;;;;;0.47;0.47;;;16.30;71.30;;;;;;5021675;28;20045;-82
2024/01/24 05:20:28;;;;;;;0.43;0.35;;;16.30;71.40;;;;;;5026749;28;20029;-82
2024/01/24 05:22:54;;;;;;;0.28;0.28;;;16.30;71.50;;;;;;5022229;28;20037;-81
2024/01/24 05:25:19;;;;;;;0.52;0.52;;;16.30;71.50;;;;;;5003658;28;20096;-82
2024/01/24 05:27:45;;;;;;;0.60;0.40;;;16.20;71.40;;;;;;5023228;28;20029;-82
2024/01/24 05:30:11;;;;;;;0.98;0.55;;;16.20;71.40;;;;;;5036556;28;20040;-82
2024/01/24 05:32:36;;;;;;;0.40;0.40;;;16.20;71.40;;;;;;5023790;28;20511;-82
2024/01/24 05:35:02;;;;;;;0.40;0.40;;;16.20;71.40;;;;;;5012432;28;20101;-83
2024/01/24 05:37:27;;;;;;;0.47;0.47;;;16.30;71.50;;;;;;4990104;28;20042;-83
2024/01/24 05:39:53;;;;;;;0.40;0.40;;;16.30;71.40;;;;;;4998348;28;20033;-82
2024/01/24 05:42:18;;;;;;;0.40;0.40;;;16.30;71.50;;;;;;5050826;28;20052;-82
2024/01/24 05:44:44;;;;;;;0.30;0.30;;;16.30;71.50;;;;;;5007039;28;20039;-82
2024/01/24 05:47:10;;;;;;;0.50;0.50;;;16.30;71.50;;;;;;5002720;28;20499;-82
2024/01/24 05:49:36;;;;;;;0.45;0.45;;;16.30;71.50;;;;;;5019319;28;20033;-81
2024/01/24 05:52:04;;;;;;;0.38;0.38;;;16.30;71.70;;;;;;5007773;28;20068;-83
2024/01/24 05:54:29;;;;;;;0.40;0.30;;;16.30;71.50;;;;;;5022344;28;20041;-83
2024/01/24 05:56:55;;;;;;;0.43;0.32;;;16.30;71.50;;;;;;4986143;28;20050;-82
2024/01/24 05:59:20;;;;;;;0.22;0.20;;;16.30;71.50;;;;;;5017184;28;20044;-82
2024/01/24 06:01:47;;;;;;;0.40;0.40;;;16.30;71.50;;;;;;5006051;28;20103;-82
2024/01/24 06:04:13;;;;;;;0.40;0.32;;;16.30;71.50;;;;;;5001230;28;20478;-82
2024/01/24 06:06:41;;;;;;;0.30;0.30;;;16.30;71.50;;;;;;4995586;28;20034;-81
2024/01/24 06:09:07;;;;;;;0.22;0.22;;;16.20;71.60;;;;;;5022355;28;20069;-81
2024/01/24 06:11:32;;;;;;;0.50;0.30;;;16.20;71.40;;;;;;5017285;28;20072;-82
2024/01/24 06:13:58;;;;;;;0.30;0.30;;;16.20;71.40;;;;;;5017806;28;20073;-83
2024/01/24 06:16:23;;;;;;;0.30;0.30;;;16.20;71.40;;;;;;5020570;28;20613;-84
2024/01/24 06:18:49;;;;;;;0.38;0.38;;;16.20;71.40;;;;;;5004015;28;20409;-86
2024/01/24 06:21:15;;;;;;;0.20;0.20;;;16.20;71.50;;;;;;5003250;28;20129;-83
2024/01/24 06:23:40;;;;;;;0.30;0.30;;;16.20;72.40;;;;;;5003197;28;20038;-82
2024/01/24 06:26:06;;;;;;;0.63;0.40;;;16.20;71.40;;;;;;5017293;28;20073;-83
2024/01/24 06:28:32;;;;;;;0.30;0.30;;;16.20;71.50;;;;;;4983527;28;20049;-83
2024/01/24 06:30:57;;;;;;;0.40;0.28;;;16.20;71.40;;;;;;5002510;28;20467;-82
2024/01/24 06:33:24;;;;;;;0.30;0.20;;;16.20;71.40;;;;;;5019022;28;20030;-82
2024/01/24 06:35:49;;;;;;;0.20;0.20;;;16.20;71.60;;;;;;5023352;28;20103;-82
2024/01/24 06:38:15;;;;;;;0.15;0.10;;;16.20;71.40;;;;;;5022049;28;20747;-82
2024/01/24 06:40:41;;;;;;;0.20;0.20;;;16.20;71.60;;;;;;4997068;28;20038;-84
2024/01/24 06:43:06;;;;;;;0.30;0.30;;;16.10;71.40;;;;;;5022804;28;20053;-83
2024/01/24 06:45:32;;;;;;;0.50;0.30;;;16.20;71.30;;;;;;5005360;28;20111;-82
2024/01/24 06:47:58;;;;;;;0.20;0.20;;;16.20;71.40;;;;;;5019708;28;20118;-82
2024/01/24 06:50:24;;;;;;;1.95;0.55;;;16.20;71.00;;;;;;5008163;28;20289;-82
2024/01/24 06:52:49;;;;;;;0.93;0.40;;;16.30;71.50;;;;;;5003330;28;20044;-83
2024/01/24 06:55:16;;;;;;;1.15;0.30;;;16.20;71.90;;;;;;5017089;28;20037;-82
2024/01/24 06:57:41;;;;;;;0.60;0.60;;;16.30;71.70;;;;;;5002926;28;20156;-82
2024/01/24 07:00:08;;;;;;;1.00;0.50;;;16.20;71.40;;;;;;4999786;28;20557;-81
2024/01/24 07:02:34;;;;;;;0.68;0.50;;;16.20;71.70;;;;;;5003641;28;20061;-82
2024/01/24 07:05:02;;;;;;;0.77;0.50;;;16.20;71.80;;;;;;5020744;28;20507;-83
2024/01/24 07:07:27;;;;;;;1.25;0.38;;;16.20;71.80;;;;;;5012464;28;20053;-82
2024/01/24 07:09:53;;;;;;;0.57;0.30;;;16.20;71.70;;;;;;5019697;28;20084;-81
2024/01/24 07:12:20;;;;;;;1.70;0.32;;;16.20;71.70;;;;;;5019643;28;20045;-81
2024/01/24 07:14:46;;;;;;;0.43;0.40;;;16.20;71.70;;;;;;5000460;28;20065;-80
2024/01/24 07:17:12;;;;;;;0.30;0.30;;;16.20;71.70;;;;;;5037136;28;20065;-81
2024/01/24 07:19:38;;;;;;;2.45;0.50;;;16.20;71.50;;;;;;5019804;28;20096;-81
2024/01/24 07:22:04;;;;;;;0.30;0.30;;;16.20;71.50;;;;;;5023418;28;20522;-82
2024/01/24 07:24:30;;;;;;;0.38;0.32;;;16.20;71.50;;;;;;5018934;28;20058;-81
2024/01/24 07:26:56;;;;;;;1.63;0.60;;;16.20;71.40;;;;;;5019572;28;20034;-81
2024/01/24 07:29:22;;;;;;;1.90;0.30;;;16.20;71.80;;;;;;4999367;28;20405;-80
2024/01/24 07:31:47;;;;;;;0.68;0.40;;;16.20;71.40;;;;;;5018844;28;20050;-81
2024/01/24 07:34:13;;;;;;;0.40;0.35;;;16.30;71.60;;;;;;5009943;28;20037;-81
2024/01/24 07:36:39;;;;;;;0.60;0.35;;;16.20;71.50;;;;;;4993167;28;20042;-79
2024/01/24 07:39:06;;;;;;;1.05;0.20;;;16.20;71.70;;;;;;5003663;28;20100;-79
2024/01/24 07:41:32;;;;;;;0.30;0.30;;;16.20;71.80;;;;;;5005611;28;20046;-79
2024/01/24 07:43:59;;;;;;;0.43;0.43;;;16.20;71.90;;;;;;4984290;28;20572;-79
2024/01/24 07:46:25;;;;;;;0.20;0.20;;;16.20;71.80;;;;;;5008891;28;20049;-80
2024/01/24 07:48:51;;;;;;;0.45;0.30;;;16.20;72.00;;;;;;5025042;28;20044;-80
2024/01/24 07:51:17;;;;;;;0.38;0.20;;;16.10;71.70;;;;;;5026457;28;20045;-79
2024/01/24 07:53:43;;;;;;;1.95;0.50;;;16.10;71.90;;;;;;5022712;28;20480;-79
2024/01/24 07:56:10;;;;;;;0.30;0.28;;;16.10;71.80;;;;;;5027416;28;21596;-79
2024/01/24 07:58:39;;;;;;;0.40;0.38;;;16.10;71.90;;;;;;5019634;28;20041;-79
2024/01/24 08:01:05;;;;;;;0.38;0.20;;;16.20;71.90;;;;;;5024776;28;20124;-78
2024/01/24 08:03:31;;;;;;;3.13;2.55;;;16.20;71.90;;;;;;5018063;28;20489;-77
2024/01/24 08:05:56;;;;;;;184.35;123.65;;;16.20;72.00;;;;;;5033586;28;20054;-77
2024/01/24 08:08:22;;;;;;;166.48;113.50;;;16.20;71.60;;;;;;5037551;28;20041;-78
2024/01/24 08:10:47;;;;;;;123.15;80.60;;;16.30;71.40;;;;;;5002299;28;20048;-77
2024/01/24 08:13:13;;;;;;;83.03;55.03;;;16.30;71.50;;;;;;5049007;28;20033;-79
2024/01/24 08:15:38;;;;;;;64.90;43.85;;;16.30;71.10;;;;;;5031596;28;20041;-78
2024/01/24 08:18:04;;;;;;;54.22;37.05;;;16.40;71.00;;;;;;5011566;28;20076;-78
2024/01/24 08:20:30;;;;;;;48.67;32.85;;;16.40;70.80;;;;;;5031176;28;20053;-80
2024/01/24 08:22:55;;;;;;;42.60;29.35;;;16.40;70.70;;;;;;5027663;28;20511;-78
2024/01/24 08:25:22;;;;;;;35.22;24.13;;;16.50;70.70;;;;;;5026616;28;20053;-81
2024/01/24 08:27:47;;;;;;;32.03;22.92;;;16.50;70.90;;;;;;5028109;28;20041;-79
2024/01/24 08:30:13;;;;;;;37.00;27.65;;;16.50;70.60;;;;;;5007864;28;20423;-81
2024/01/24 08:32:41;;;;;;;35.90;26.13;;;16.50;70.60;;;;;;5009348;28;20041;-81
2024/01/24 08:35:08;;;;;;;36.17;26.10;;;16.50;70.50;;;;;;5032949;28;20029;-80
2024/01/24 08:37:34;;;;;;;35.00;24.73;;;16.50;70.50;;;;;;5026842;28;20052;-80
2024/01/24 08:39:59;;;;;;;30.88;23.48;;;16.60;70.70;;;;;;4992247;28;20415;-79
2024/01/24 08:42:25;;;;;;;35.45;23.98;;;16.60;70.40;;;;;;5024898;28;20044;-79
2024/01/24 08:44:51;;;;;;;31.25;22.98;;;16.60;70.50;;;;;;5024702;28;20042;-76
2024/01/24 08:47:16;;;;;;;29.05;21.38;;;16.70;70.30;;;;;;5005757;28;20467;-79
2024/01/24 08:49:42;;;;;;;30.42;21.85;;;16.60;70.50;;;;;;5001720;28;20041;-80
2024/01/24 08:52:07;;;;;;;27.48;20.88;;;16.60;70.70;;;;;;5041848;28;20038;-79
2024/01/24 08:54:33;;;;;;;26.92;20.08;;;16.60;70.80;;;;;;5008536;28;20523;-78
2024/01/24 08:56:58;;;;;;;26.70;20.38;;;16.60;71.00;;;;;;5009866;28;20046;-78
2024/01/24 08:59:24;;;;;;;25.00;18.17;;;16.50;70.90;;;;;;4996320;28;20437;-78
2024/01/24 09:01:49;;;;;;;22.83;17.73;;;16.60;71.00;;;;;;5007143;28;20045;-79
2024/01/24 09:04:15;;;;;;;37.58;25.20;;;16.60;71.20;;;;;;5026304;28;20034;-80
2024/01/24 09:06:42;;;;;;;38.78;25.95;;;16.60;70.90;;;;;;5024999;28;20041;-80
2024/01/24 09:09:08;;;;;;;37.63;26.63;;;16.70;70.90;;;;;;5009844;28;20057;-80
2024/01/24 09:11:34;;;;;;;31.55;21.98;;;16.70;70.80;;;;;;5023424;28;20037;-80
2024/01/24 09:14:00;;;;;;;30.75;21.08;;;16.70;70.60;;;;;;5024725;28;20025;-80
2024/01/24 09:16:26;;;;;;;29.42;21.40;;;16.70;71.50;;;;;;5009075;28;20080;-80
2024/01/24 09:18:51;;;;;;;27.70;20.42;;;16.70;71.60;;;;;;5010381;28;20042;-80
2024/01/24 09:21:17;;;;;;;25.55;19.80;;;16.70;70.70;;;;;;5025738;28;20109;-80
2024/01/24 09:23:42;;;;;;;24.05;18.85;;;16.70;70.70;;;;;;5026664;28;20530;-80
2024/01/24 09:26:08;;;;;;;23.85;17.77;;;16.60;70.70;;;;;;5026499;28;20033;-80
2024/01/24 09:28:33;;;;;;;22.30;17.38;;;16.70;70.80;;;;;;4994720;28;20056;-79
2024/01/24 09:30:59;;;;;;;22.40;17.02;;;16.70;70.80;;;;;;5024782;28;20499;-78
2024/01/24 09:33:25;;;;;;;20.85;15.85;;;16.70;70.90;;;;;;5008901;28;21539;-78
2024/01/24 09:35:50;;;;;;;19.25;15.00;;;16.70;70.80;;;;;;5021500;28;20046;-80
2024/01/24 09:38:16;;;;;;;21.35;16.30;;;16.70;70.80;;;;;;5024913;28;20535;-79
2024/01/24 09:40:42;;;;;;;21.30;15.88;;;16.70;70.90;;;;;;5007689;28;20070;-79
2024/01/24 09:43:10;;;;;;;18.63;14.38;;;16.70;70.80;;;;;;4994707;28;20110;-79
2024/01/24 09:45:42;;;;;;;24.42;19.50;;;16.70;70.70;;;;;;4998748;28;20096;-80
2024/01/24 09:48:09;;;;;;;25.23;19.38;;;16.80;70.40;;;;;;5018773;28;20110;-79
2024/01/24 09:50:34;;;;;;;24.20;18.00;;;16.80;70.50;;;;;;4998311;28;20057;-78
2024/01/24 09:53:02;;;;;;;21.70;17.52;;;16.80;70.40;;;;;;5022755;28;20057;-78
2024/01/24 09:55:28;;;;;;;22.88;17.50;;;16.80;70.40;;;;;;5021247;28;20065;-79
2024/01/24 09:57:53;;;;;;;24.45;17.77;;;16.90;70.50;;;;;;5006293;28;20065;-79
2024/01/24 10:00:19;;;;;;;20.77;15.88;;;16.80;70.50;;;;;;5023841;28;20065;-79
2024/01/24 10:02:45;;;;;;;21.35;15.98;;;16.80;70.50;;;;;;5022333;28;20474;-80
2024/01/24 10:05:13;;;;;;;22.05;15.60;;;16.90;70.50;;;;;;4992905;28;20063;-79
2024/01/24 10:07:40;;;;;;;21.35;15.85;;;17.00;70.30;;;;;;5022338;28;20045;-79
2024/01/24 10:10:07;;;;;;;19.70;14.43;;;16.90;70.40;;;;;;5014629;28;20043;-79
2024/01/24 10:12:33;;;;;;;19.27;15.40;;;17.00;70.30;;;;;;5006544;28;20064;-80
2024/01/24 10:14:58;;;;;;;20.02;14.02;;;17.00;70.20;;;;;;5023500;28;20507;-82
2024/01/24 10:17:24;;;;;;;18.35;14.40;;;17.00;70.40;;;;;;5039699;28;20049;-79
2024/01/24 10:19:50;;;;;;;19.67;13.60;;;17.10;70.30;;;;;;4986206;28;20037;-79
2024/01/24 10:22:16;;;;;;;19.63;14.65;;;17.10;70.60;;;;;;5006803;28;20077;-80
2024/01/24 10:24:41;;;;;;;17.55;13.30;;;17.10;70.50;;;;;;5003993;28;20518;-81
2024/01/24 10:27:08;;;;;;;15.05;12.48;;;17.10;70.50;;;;;;5052861;28;20058;-80
2024/01/24 10:29:33;;;;;;;15.85;12.48;;;17.10;70.40;;;;;;5000526;28;20083;-79
2024/01/24 10:31:59;;;;;;;16.23;13.00;;;17.10;70.50;;;;;;5003595;28;20037;-81
2024/01/24 10:34:28;;;;;;;17.23;12.80;;;17.10;70.60;;;;;;4982813;28;22504;-80
2024/01/24 10:36:54;;;;;;;16.38;11.50;;;17.10;70.40;;;;;;5013365;28;20046;-81
2024/01/24 10:39:22;;;;;;;15.75;12.88;;;17.10;70.30;;;;;;5006572;28;20057;-80
2024/01/24 10:41:48;;;;;;;14.90;11.07;;;17.10;70.30;;;;;;5021378;28;20133;-80
2024/01/24 10:44:16;;;;;;;15.50;12.05;;;17.10;70.30;;;;;;5023339;28;20094;-80
2024/01/24 10:46:42;;;;;;;12.88;11.48;;;17.10;70.60;;;;;;5003386;28;20135;-80
2024/01/24 10:49:10;;;;;;;13.32;11.43;;;17.10;70.50;;;;;;4995573;28;20534;-78
2024/01/24 10:51:36;;;;;;;16.42;11.63;;;17.10;70.30;;;;;;4992923;28;20045;-78
2024/01/24 10:54:04;;;;;;;12.00;10.30;;;17.00;70.50;;;;;;5001043;28;20073;-79
2024/01/24 10:56:29;;;;;;;11.05;9.85;;;17.00;70.70;;;;;;5004002;28;20054;-79
2024/01/24 10:58:56;;;;;;;11.43;10.23;;;17.00;70.60;;;;;;4985903;28;20030;-79
2024/01/24 11:01:22;;;;;;;10.60;9.55;;;17.00;70.70;;;;;;4988191;28;20049;-79
2024/01/24 11:03:47;;;;;;;10.75;9.15;;;17.00;70.80;;;;;;5004181;28;20049;-79
2024/01/24 11:06:15;;;;;;;14.48;9.52;;;17.00;70.70;;;;;;4985129;28;20049;-77
2024/01/24 11:08:51;;;;;;;11.07;9.90;;;17.00;70.80;;;;;;4976990;28;20045;-79
2024/01/24 11:11:20;;;;;;;11.38;9.20;;;17.00;71.10;;;;;;5017608;28;20045;-79
2024/01/24 11:13:46;;;;;;;10.10;8.90;;;17.00;70.70;;;;;;5024935;28;20042;-79
2024/01/24 11:16:37;;;;;;;10.48;8.32;;;17.00;70.70;;;;;;5010205;28;20045;-79
2024/01/24 11:19:20;;;;;;;10.25;8.57;;;17.00;71.00;;;;;;5008586;28;20112;-80
2024/01/24 11:21:46;;;;;;;9.77;8.32;;;16.90;71.00;;;;;;5016110;28;20049;-79
2024/01/24 11:24:12;;;;;;;8.65;7.75;;;17.00;70.90;;;;;;5027066;28;20044;-79
2024/01/24 11:26:38;;;;;;;8.57;7.70;;;16.90;71.00;;;;;;5023740;28;20045;-79
2024/01/24 11:29:09;;;;;;;8.82;7.95;;;16.90;71.00;;;;;;5024668;28;20038;-79
2024/01/24 11:31:39;;;;;;;8.32;7.50;;;16.90;71.10;;;;;;4993421;28;20058;-79
2024/01/24 11:34:06;;;;;;;10.18;7.60;;;16.90;71.00;;;;;;4993769;28;20073;-80
2024/01/24 11:36:31;;;;;;;9.48;7.82;;;16.80;71.00;;;;;;5012580;28;20046;-80
2024/01/24 11:38:57;;;;;;;8.88;8.07;;;16.80;71.00;;;;;;5012923;28;20061;-79
2024/01/24 11:41:26;;;;;;;9.27;7.70;;;16.80;71.00;;;;;;5016660;28;20079;-79
2024/01/24 11:43:52;;;;;;;7.55;6.90;;;16.80;71.00;;;;;;5012872;28;20033;-79
2024/01/24 11:46:18;;;;;;;8.30;7.50;;;16.80;71.00;;;;;;5026685;28;20056;-79
2024/01/24 11:48:44;;;;;;;8.15;7.38;;;16.80;71.00;;;;;;5009301;28;20522;-79
2024/01/24 11:51:13;;;;;;;8.32;7.53;;;16.80;71.00;;;;;;5014284;28;20035;-80
2024/01/24 11:53:39;;;;;;;7.35;6.70;;;16.80;71.00;;;;;;5026207;28;20036;-80
2024/01/24 11:56:06;;;;;;;7.35;6.40;;;16.80;71.00;;;;;;5010466;28;20030;-79
2024/01/24 11:58:32;;;;;;;8.45;6.85;;;16.80;71.00;;;;;;5024554;28;20057;-79
2024/01/24 12:01:04;;;;;;;7.13;6.47;;;16.80;71.10;;;;;;5005902;28;20117;-79
2024/01/24 12:03:30;;;;;;;7.75;6.95;;;16.80;71.10;;;;;;5022934;28;20041;-79
2024/01/24 12:05:56;;;;;;;7.32;6.72;;;16.80;70.90;;;;;;5024557;28;20110;-79
2024/01/24 12:08:22;;;;;;;7.30;6.60;;;16.80;70.90;;;;;;4994555;28;20419;-78
2024/01/24 12:10:47;;;;;;;7.15;6.55;;;16.80;70.90;;;;;;5007490;28;20033;-79
2024/01/24 12:13:13;;;;;;;6.13;5.50;;;16.80;70.90;;;;;;4996610;28;20547;-78
2024/01/24 12:15:39;;;;;;;7.05;6.38;;;16.80;70.80;;;;;;5004505;28;20049;-78
2024/01/24 12:18:05;;;;;;;6.63;6.03;;;16.80;70.90;;;;;;5015840;28;20046;-79
2024/01/24 12:20:33;;;;;;;6.40;5.47;;;16.90;71.20;;;;;;5023767;28;20034;-78
2024/01/24 12:22:58;;;;;;;6.68;5.97;;;16.90;70.70;;;;;;5004973;28;20040;-77
2024/01/24 12:25:25;;;;;;;6.22;5.63;;;16.90;70.70;;;;;;4979618;28;20038;-80
2024/01/24 12:27:50;;;;;;;6.32;5.72;;;17.00;71.00;;;;;;5003432;28;20043;-79
2024/01/24 12:30:16;;;;;;;5.57;5.07;;;17.00;71.90;;;;;;5006187;28;20088;-79
2024/01/24 12:32:42;;;;;;;5.43;4.93;;;17.00;72.20;;;;;;5025023;28;20236;-81
2024/01/24 12:35:09;;;;;;;5.18;4.78;;;17.10;72.80;;;;;;5023251;28;20042;-80